Time;durP1;ratioP1;P1;durP2;ratioP2;P2;SDS_P1;SDS_P2;PMS_P1;PMS_P2;Temp;Humidity;BMP_temperature;BMP_pressure;BME280_temperature;BME280_humidity;BME280_pressure;Samples;Min_cycle;Max_cycle;Signal;HPM_P1;HPM_P2
2021/11/19 00:02:00;;;;;;;8.75;6.18;;;1.50;99.90;;;;;;5012783;28;20048;-68
2021/11/19 00:04:27;;;;;;;9.48;5.93;;;1.50;99.90;;;;;;5008176;28;20390;-68
2021/11/19 00:06:54;;;;;;;12.10;6.45;;;1.40;99.90;;;;;;5015967;28;20044;-68
2021/11/19 00:09:20;;;;;;;10.60;6.90;;;1.40;99.90;;;;;;5010960;28;20037;-68
2021/11/19 00:11:48;;;;;;;10.55;6.50;;;1.30;99.90;;;;;;5011499;28;20120;-68
2021/11/19 00:14:16;;;;;;;12.25;6.15;;;1.30;99.90;;;;;;5007043;28;20040;-68
2021/11/19 00:16:43;;;;;;;12.32;7.00;;;1.30;99.90;;;;;;5006774;28;20584;-69
2021/11/19 00:19:10;;;;;;;15.02;6.55;;;1.20;99.90;;;;;;5009024;28;20492;-69
2021/11/19 00:21:38;;;;;;;10.65;6.60;;;1.20;99.90;;;;;;5008514;28;20037;-68
2021/11/19 00:24:05;;;;;;;14.93;6.30;;;1.10;99.90;;;;;;5008066;28;20041;-68
2021/11/19 00:26:31;;;;;;;11.15;8.57;;;1.20;99.90;;;;;;5011512;28;20037;-69
2021/11/19 00:28:59;;;;;;;8.35;6.05;;;1.30;99.90;;;;;;5009349;28;20018;-68
2021/11/19 00:31:25;;;;;;;9.82;6.00;;;1.30;99.90;;;;;;5008495;28;20393;-68
2021/11/19 00:33:52;;;;;;;8.43;4.93;;;1.10;99.90;;;;;;5008831;28;20148;-68
2021/11/19 00:36:21;;;;;;;6.90;4.57;;;1.10;99.90;;;;;;5013794;28;20034;-68
2021/11/19 00:38:49;;;;;;;10.38;6.72;;;1.10;99.90;;;;;;5009778;28;20049;-68
2021/11/19 00:41:16;;;;;;;8.65;5.95;;;1.10;99.90;;;;;;5009495;28;20121;-69
2021/11/19 00:43:42;;;;;;;10.30;6.45;;;1.00;99.90;;;;;;5009692;28;20060;-68
2021/11/19 00:46:08;;;;;;;15.85;5.82;;;0.90;99.90;;;;;;5024380;28;20143;-68
2021/11/19 00:48:35;;;;;;;8.48;6.00;;;0.90;99.90;;;;;;5008284;28;20041;-69
2021/11/19 00:51:11;;;;;;;9.68;5.75;;;1.00;99.90;;;;;;5009370;28;20037;-68
2021/11/19 00:53:39;;;;;;;8.85;5.30;;;1.00;99.90;;;;;;5009796;28;20108;-68
2021/11/19 00:56:05;;;;;;;8.68;6.05;;;1.10;99.90;;;;;;5009507;28;20032;-68
2021/11/19 00:58:31;;;;;;;11.13;6.88;;;1.10;99.90;;;;;;5010170;28;20410;-68
2021/11/19 01:01:04;;;;;;;7.97;5.78;;;1.10;99.90;;;;;;5010500;28;20040;-68
2021/11/19 01:03:30;;;;;;;7.97;4.53;;;1.20;99.90;;;;;;5009981;28;20331;-68
2021/11/19 01:05:56;;;;;;;7.68;4.85;;;1.30;99.90;;;;;;5007693;28;20029;-68
2021/11/19 01:08:25;;;;;;;8.10;5.22;;;1.20;99.90;;;;;;5012093;28;20037;-68
2021/11/19 01:10:55;;;;;;;8.38;5.15;;;1.20;99.90;;;;;;5012754;28;20038;-68
2021/11/19 01:13:22;;;;;;;7.78;4.85;;;1.20;99.90;;;;;;5011975;28;20044;-68
2021/11/19 01:16:20;;;;;;;7.43;5.20;;;1.20;99.90;;;;;;5008680;28;20036;-68
2021/11/19 01:18:53;;;;;;;8.05;5.20;;;1.10;99.90;;;;;;5008195;28;20908;-69
2021/11/19 01:21:28;;;;;;;8.55;4.88;;;1.10;99.90;;;;;;5008792;28;20033;-68
2021/11/19 01:23:55;;;;;;;9.48;5.38;;;1.00;99.90;;;;;;5013095;28;20371;-68
2021/11/19 01:26:26;;;;;;;11.95;5.85;;;0.90;99.90;;;;;;5007486;28;20111;-68
2021/11/19 01:28:55;;;;;;;8.50;4.65;;;0.80;99.90;;;;;;5008042;28;20025;-68
2021/11/19 01:31:25;;;;;;;7.05;5.20;;;0.70;99.90;;;;;;5008620;28;20053;-68
2021/11/19 01:33:51;;;;;;;8.93;5.50;;;0.70;99.90;;;;;;5013148;28;20034;-68
2021/11/19 01:36:18;;;;;;;10.63;5.45;;;0.70;99.90;;;;;;5008001;28;20030;-68
2021/11/19 01:38:45;;;;;;;7.13;4.68;;;0.70;99.90;;;;;;5009842;28;20026;-68
2021/11/19 01:41:16;;;;;;;7.65;4.53;;;0.60;99.90;;;;;;5007548;28;20401;-67
2021/11/19 01:43:42;;;;;;;8.13;4.90;;;0.60;99.90;;;;;;5009043;28;20037;-68
2021/11/19 01:46:10;;;;;;;7.93;4.95;;;0.70;99.90;;;;;;5013628;28;20037;-68
2021/11/19 01:48:39;;;;;;;9.18;5.20;;;0.70;99.90;;;;;;5010194;28;20022;-68
2021/11/19 01:51:20;;;;;;;;;;;0.70;99.90;;;;;;5008484;28;20029;-68
2021/11/19 01:53:54;;;;;;;5.80;4.00;;;0.70;99.90;;;;;;5008342;28;19924;-68
2021/11/19 01:56:34;;;;;;;5.75;4.30;;;0.70;99.90;;;;;;5008912;28;20119;-68
2021/11/19 01:59:10;;;;;;;5.07;4.28;;;0.80;99.90;;;;;;5007963;28;20030;-68
2021/11/19 02:01:48;;;;;;;4.43;3.85;;;0.80;99.90;;;;;;5006960;28;20069;-68
2021/11/19 02:04:19;;;;;;;6.32;4.85;;;0.80;99.90;;;;;;5007282;28;20026;-68
2021/11/19 02:06:50;;;;;;;9.07;4.63;;;0.90;99.90;;;;;;5008595;28;20022;-68
2021/11/19 02:09:54;;;;;;;7.47;4.93;;;0.90;99.90;;;;;;5007382;28;20040;-67
2021/11/19 02:12:32;;;;;;;5.75;4.32;;;0.90;99.90;;;;;;5010731;28;20939;-68
2021/11/19 02:15:00;;;;;;;6.63;5.20;;;0.90;99.90;;;;;;5012613;28;20049;-68
2021/11/19 02:17:27;;;;;;;;;;;1.00;99.90;;;;;;5025622;28;20885;-68
2021/11/19 02:19:57;;;;;;;10.00;5.30;;;1.00;99.90;;;;;;5011724;28;20349;-68
2021/11/19 02:22:26;;;;;;;8.05;5.40;;;1.00;99.90;;;;;;5014995;28;20025;-68
2021/11/19 02:24:54;;;;;;;10.90;6.30;;;1.00;99.90;;;;;;5015681;28;20037;-68
2021/11/19 02:27:24;;;;;;;48.00;22.90;;;1.00;99.90;;;;;;5010186;28;20159;-68
2021/11/19 02:29:59;;;;;;;19.73;9.27;;;1.00;99.90;;;;;;5011558;28;20029;-68
2021/11/19 02:32:31;;;;;;;8.77;5.65;;;1.00;99.90;;;;;;5009902;28;20125;-68
2021/11/19 02:34:57;;;;;;;9.40;6.50;;;1.10;99.90;;;;;;5012312;28;20072;-68
2021/11/19 02:37:34;;;;;;;10.57;6.35;;;1.00;99.90;;;;;;5014726;28;20117;-68
2021/11/19 02:40:17;;;;;;;12.75;6.85;;;1.00;99.90;;;;;;5011386;28;20032;-68
2021/11/19 02:42:59;;;;;;;9.38;5.30;;;1.00;99.90;;;;;;5010876;28;20460;-68
2021/11/19 02:45:41;;;;;;;9.20;6.20;;;1.00;99.90;;;;;;5011940;28;20037;-68
2021/11/19 02:48:10;;;;;;;8.25;5.53;;;1.00;99.90;;;;;;5012810;28;20040;-68
2021/11/19 02:50:36;;;;;;;8.65;5.43;;;1.00;99.90;;;;;;5011599;28;20536;-68
2021/11/19 02:53:04;;;;;;;16.45;6.63;;;1.00;99.90;;;;;;5010992;28;20532;-68
2021/11/19 02:55:35;;;;;;;19.45;7.45;;;0.90;99.90;;;;;;5009888;28;20710;-68
2021/11/19 02:58:02;;;;;;;17.55;7.05;;;0.90;99.90;;;;;;5011154;28;20120;-68
2021/11/19 03:00:46;;;;;;;12.68;6.57;;;0.90;99.90;;;;;;5011218;28;20447;-68
2021/11/19 03:03:13;;;;;;;16.65;6.10;;;0.90;99.90;;;;;;5010591;28;20441;-69
2021/11/19 03:05:38;;;;;;;14.50;7.55;;;0.90;99.90;;;;;;5008130;28;20030;-69
2021/11/19 03:08:04;;;;;;;12.50;7.03;;;0.80;99.90;;;;;;5014733;28;20037;-68
2021/11/19 03:10:35;;;;;;;12.82;6.97;;;0.70;99.90;;;;;;5011597;28;20061;-68
2021/11/19 03:13:05;;;;;;;22.23;7.57;;;0.70;99.90;;;;;;5023990;28;20048;-69
2021/11/19 03:15:34;;;;;;;14.25;7.55;;;0.70;99.90;;;;;;5011239;28;20510;-68
2021/11/19 03:18:00;;;;;;;28.20;7.43;;;0.70;99.90;;;;;;5010736;28;20029;-68
2021/11/19 03:20:26;;;;;;;10.73;6.47;;;0.80;99.90;;;;;;5011412;28;20055;-68
2021/11/19 03:22:54;;;;;;;33.70;8.55;;;0.80;99.90;;;;;;5009397;28;20059;-68
2021/11/19 03:25:27;;;;;;;20.10;6.82;;;0.80;99.90;;;;;;5010017;28;20151;-69
2021/11/19 03:27:53;;;;;;;26.08;7.53;;;0.80;99.90;;;;;;5010029;28;20028;-68
2021/11/19 03:30:21;;;;;;;9.07;5.82;;;0.80;99.90;;;;;;5012311;28;20037;-69
2021/11/19 03:32:48;;;;;;;10.32;6.35;;;0.80;99.90;;;;;;5010504;28;20038;-68
2021/11/19 03:35:15;;;;;;;10.60;6.90;;;0.70;99.90;;;;;;5010165;28;20109;-68
2021/11/19 03:37:48;;;;;;;11.50;6.82;;;0.70;99.90;;;;;;5015806;28;20041;-69
2021/11/19 03:40:17;;;;;;;8.93;5.53;;;0.70;99.90;;;;;;5011236;28;20044;-68
2021/11/19 03:42:42;;;;;;;9.77;5.28;;;0.70;99.90;;;;;;5010923;28;20056;-69
2021/11/19 03:45:14;;;;;;;9.52;5.53;;;0.70;99.90;;;;;;5010118;28;20120;-69
2021/11/19 03:47:44;;;;;;;9.20;5.80;;;0.60;99.90;;;;;;5009442;28;20025;-68
2021/11/19 03:50:15;;;;;;;8.40;6.25;;;0.60;99.90;;;;;;5009913;28;20070;-68
2021/11/19 03:52:41;;;;;;;10.05;5.22;;;0.60;99.90;;;;;;5009728;28;20026;-68
2021/11/19 03:55:16;;;;;;;11.77;5.90;;;0.50;99.90;;;;;;5010793;28;20363;-68
2021/11/19 03:57:43;;;;;;;7.80;5.72;;;0.50;99.90;;;;;;5010905;28;20018;-68
2021/11/19 04:00:18;;;;;;;10.18;5.57;;;0.50;99.90;;;;;;5009853;28;20094;-68
2021/11/19 04:02:44;;;;;;;10.27;7.10;;;0.60;99.90;;;;;;5008632;28;20376;-68
2021/11/19 04:05:11;;;;;;;8.82;4.93;;;0.50;99.90;;;;;;5009724;28;20042;-68
2021/11/19 04:07:36;;;;;;;9.70;5.97;;;0.50;99.90;;;;;;5009398;28;20094;-68
2021/11/19 04:10:05;;;;;;;10.85;5.40;;;0.50;99.90;;;;;;5012628;28;20037;-69
2021/11/19 04:12:30;;;;;;;11.13;6.22;;;0.60;99.90;;;;;;5009896;28;20052;-69
2021/11/19 04:14:56;;;;;;;11.25;5.68;;;0.60;99.90;;;;;;5010873;28;20588;-68
2021/11/19 04:17:22;;;;;;;12.35;6.60;;;0.50;99.90;;;;;;5009506;28;20037;-69
2021/11/19 04:19:47;;;;;;;7.65;5.93;;;0.50;99.90;;;;;;5013858;28;20029;-68
2021/11/19 04:22:17;;;;;;;10.23;6.07;;;0.60;99.90;;;;;;5008784;28;20033;-69
2021/11/19 04:24:48;;;;;;;8.60;6.03;;;0.60;99.90;;;;;;5007844;28;20466;-68
2021/11/19 04:27:15;;;;;;;11.98;6.05;;;0.60;99.90;;;;;;5010096;28;20717;-68
2021/11/19 04:29:41;;;;;;;10.48;6.15;;;0.60;99.90;;;;;;5012690;28;20041;-68
2021/11/19 04:32:09;;;;;;;7.78;5.57;;;0.60;99.90;;;;;;5006800;28;20038;-68
2021/11/19 04:34:36;;;;;;;8.50;5.53;;;0.60;99.90;;;;;;5010741;28;20560;-68
2021/11/19 04:37:02;;;;;;;11.00;6.22;;;0.50;99.90;;;;;;5008797;28;20041;-68
2021/11/19 04:39:27;;;;;;;7.20;4.53;;;0.40;99.90;;;;;;5013716;28;20041;-68
2021/11/19 04:41:53;;;;;;;8.27;5.70;;;0.40;99.90;;;;;;5009098;28;20109;-68
2021/11/19 04:44:20;;;;;;;9.40;5.57;;;0.40;99.90;;;;;;5009047;28;20033;-68
2021/11/19 04:46:47;;;;;;;8.25;5.88;;;0.40;99.90;;;;;;5008652;28;20033;-68
2021/11/19 04:49:14;;;;;;;7.78;5.55;;;0.50;99.90;;;;;;5008268;28;20144;-68
2021/11/19 04:51:41;;;;;;;7.80;5.22;;;0.40;99.90;;;;;;5009879;28;20103;-68
2021/11/19 04:54:10;;;;;;;10.48;5.82;;;0.50;99.90;;;;;;5009577;28;20017;-69
2021/11/19 04:56:37;;;;;;;6.75;5.85;;;0.40;99.90;;;;;;5008672;28;20037;-68
2021/11/19 04:59:05;;;;;;;7.03;5.72;;;0.40;99.90;;;;;;5009098;28;20075;-68
2021/11/19 05:01:36;;;;;;;8.48;5.88;;;0.40;99.90;;;;;;5007991;28;20042;-68
2021/11/19 05:04:03;;;;;;;6.75;5.13;;;0.40;99.90;;;;;;5022524;28;20095;-69
2021/11/19 05:06:29;;;;;;;6.88;5.03;;;0.40;99.90;;;;;;5006501;28;20037;-68
2021/11/19 05:08:55;;;;;;;10.65;6.20;;;0.40;99.90;;;;;;5012976;28;20488;-68
2021/11/19 05:11:26;;;;;;;13.23;6.50;;;0.30;99.90;;;;;;5025720;28;20140;-68
2021/11/19 05:13:53;;;;;;;10.43;6.20;;;0.40;99.90;;;;;;5008366;28;20057;-69
2021/11/19 05:16:19;;;;;;;5.28;4.68;;;0.30;99.90;;;;;;5008676;28;20044;-68
2021/11/19 05:18:46;;;;;;;9.77;5.72;;;0.30;99.90;;;;;;5008721;28;20033;-68
2021/11/19 05:21:14;;;;;;;7.35;5.07;;;0.30;99.90;;;;;;5008393;28;20044;-68
2021/11/19 05:23:40;;;;;;;;;;;0.30;99.90;;;;;;5008556;28;20060;-68
2021/11/19 05:26:06;;;;;;;6.88;5.30;;;0.30;99.90;;;;;;5010450;28;20534;-68
2021/11/19 05:28:32;;;;;;;13.38;6.25;;;0.30;99.90;;;;;;5012642;28;20057;-68
2021/11/19 05:30:58;;;;;;;10.05;6.85;;;0.20;99.90;;;;;;5011349;28;20081;-68
2021/11/19 05:33:26;;;;;;;9.85;5.53;;;0.30;99.90;;;;;;5010228;28;20033;-68
2021/11/19 05:35:52;;;;;;;12.38;6.88;;;0.20;99.90;;;;;;5008611;28;20033;-68
2021/11/19 05:38:20;;;;;;;11.05;6.40;;;0.30;99.90;;;;;;5011749;28;20030;-68
2021/11/19 05:40:46;;;;;;;9.20;6.57;;;0.20;99.90;;;;;;5008903;28;20051;-68
2021/11/19 05:43:13;;;;;;;13.30;7.57;;;0.20;99.90;;;;;;5007421;28;20490;-69
2021/11/19 05:45:38;;;;;;;11.10;6.93;;;0.20;99.90;;;;;;5008444;28;20025;-68
2021/11/19 05:48:07;;;;;;;13.65;7.10;;;0.20;99.90;;;;;;5011238;28;20095;-68
2021/11/19 05:50:35;;;;;;;9.77;6.78;;;0.20;99.90;;;;;;5011591;28;20059;-68
2021/11/19 05:53:02;;;;;;;10.07;6.57;;;0.20;99.90;;;;;;5013584;28;20037;-68
2021/11/19 05:55:30;;;;;;;11.25;5.97;;;0.20;99.90;;;;;;5012082;28;20033;-68
2021/11/19 05:57:56;;;;;;;;;;;0.20;99.90;;;;;;5011908;28;20067;-68
2021/11/19 06:00:28;;;;;;;10.60;6.13;;;0.30;99.90;;;;;;5011631;28;20441;-68
2021/11/19 06:02:54;;;;;;;12.57;6.03;;;0.30;99.90;;;;;;5012620;28;21020;-69
2021/11/19 06:05:20;;;;;;;22.63;8.18;;;0.30;99.90;;;;;;5011554;28;20033;-69
2021/11/19 06:07:46;;;;;;;13.60;7.00;;;0.30;99.90;;;;;;5037748;28;20842;-69
2021/11/19 06:10:17;;;;;;;14.50;8.45;;;0.30;99.90;;;;;;5010486;28;20104;-68
2021/11/19 06:12:52;;;;;;;17.52;7.45;;;0.30;99.90;;;;;;5011035;28;20025;-69
2021/11/19 06:15:28;;;;;;;15.90;7.15;;;0.40;99.90;;;;;;5011475;28;20386;-68
2021/11/19 06:17:58;;;;;;;15.02;6.75;;;0.40;99.90;;;;;;5010281;28;20044;-68
2021/11/19 06:20:43;;;;;;;19.52;8.27;;;0.50;99.90;;;;;;5012143;28;20113;-68
2021/11/19 06:23:12;;;;;;;18.75;7.13;;;0.50;99.90;;;;;;5012789;28;20031;-69
2021/11/19 06:25:41;;;;;;;14.98;8.25;;;0.50;99.90;;;;;;5025929;28;20044;-69
2021/11/19 06:28:10;;;;;;;16.77;7.68;;;0.50;99.90;;;;;;5013127;28;20473;-68
2021/11/19 06:30:36;;;;;;;14.10;7.18;;;0.50;99.90;;;;;;5010430;28;20096;-69
2021/11/19 06:33:03;;;;;;;14.07;8.35;;;0.60;99.90;;;;;;5011769;28;20797;-69
2021/11/19 06:35:29;;;;;;;16.92;8.18;;;0.60;99.90;;;;;;5010133;28;20021;-68
2021/11/19 06:37:55;;;;;;;21.20;8.77;;;0.60;99.90;;;;;;5014630;28;20033;-68
2021/11/19 06:40:28;;;;;;;13.52;8.35;;;0.60;99.90;;;;;;5016258;28;20041;-68
2021/11/19 06:42:57;;;;;;;14.07;7.85;;;0.60;99.90;;;;;;5012674;28;20041;-69
2021/11/19 06:45:23;;;;;;;12.88;8.65;;;0.60;99.90;;;;;;5009513;28;20029;-68
2021/11/19 06:47:49;;;;;;;16.83;7.85;;;0.60;99.90;;;;;;5011048;28;20266;-68
2021/11/19 06:50:18;;;;;;;12.85;7.65;;;0.60;99.90;;;;;;5014081;28;20029;-69
2021/11/19 06:52:43;;;;;;;;;;;0.60;99.90;;;;;;5014129;28;20112;-68
2021/11/19 06:55:10;;;;;;;12.18;7.00;;;0.60;99.90;;;;;;5011167;28;19978;-68
2021/11/19 06:57:36;;;;;;;23.00;8.00;;;0.60;99.90;;;;;;5010454;28;20029;-69
2021/11/19 07:00:07;;;;;;;14.15;7.93;;;0.60;99.90;;;;;;5012082;28;20076;-68
2021/11/19 07:02:32;;;;;;;10.57;7.38;;;0.60;99.90;;;;;;5009949;28;20037;-68
2021/11/19 07:04:58;;;;;;;13.80;6.72;;;0.60;99.90;;;;;;5014091;28;20036;-69
2021/11/19 07:07:23;;;;;;;13.20;7.30;;;0.60;99.90;;;;;;5012781;28;20049;-68
2021/11/19 07:09:50;;;;;;;18.20;8.65;;;0.60;99.90;;;;;;5010946;28;20380;-69
2021/11/19 07:12:16;;;;;;;17.02;7.88;;;0.60;99.90;;;;;;5010513;28;20477;-68
2021/11/19 07:14:43;;;;;;;14.77;9.15;;;0.60;99.90;;;;;;5011067;28;20663;-69
2021/11/19 07:17:09;;;;;;;18.55;9.00;;;0.60;99.90;;;;;;5009954;28;20021;-68
2021/11/19 07:19:36;;;;;;;14.38;7.85;;;0.60;99.90;;;;;;5014658;28;20156;-68
2021/11/19 07:22:03;;;;;;;16.15;8.98;;;0.60;99.90;;;;;;5009473;28;20029;-69
2021/11/19 07:24:29;;;;;;;17.60;8.63;;;0.60;99.90;;;;;;5011579;28;20068;-68
2021/11/19 07:26:55;;;;;;;15.88;7.70;;;0.60;99.90;;;;;;5027664;28;20218;-69
2021/11/19 07:29:21;;;;;;;12.48;8.43;;;0.60;99.90;;;;;;5027865;28;20105;-69
2021/11/19 07:31:48;;;;;;;14.35;9.80;;;0.70;99.90;;;;;;5010044;28;20263;-68
2021/11/19 07:34:14;;;;;;;14.93;8.80;;;0.70;99.90;;;;;;5010874;28;20025;-68
2021/11/19 07:36:40;;;;;;;16.27;9.02;;;0.70;99.90;;;;;;5009867;28;20032;-68
2021/11/19 07:39:07;;;;;;;14.50;7.78;;;0.70;99.90;;;;;;5013136;28;20033;-68
2021/11/19 07:41:33;;;;;;;12.23;8.43;;;0.80;99.90;;;;;;5011002;28;20034;-68
2021/11/19 07:43:59;;;;;;;16.63;8.10;;;0.80;99.90;;;;;;5024596;28;20068;-68
2021/11/19 07:46:27;;;;;;;12.73;7.85;;;0.80;99.90;;;;;;5009879;28;20136;-68
2021/11/19 07:48:54;;;;;;;17.00;9.73;;;0.80;99.90;;;;;;5012775;28;20673;-68
2021/11/19 07:51:23;;;;;;;14.43;9.05;;;0.80;99.90;;;;;;5022359;28;20029;-68
2021/11/19 07:53:51;;;;;;;17.25;8.68;;;0.90;99.90;;;;;;5009837;28;20026;-68
2021/11/19 07:56:22;;;;;;;17.58;8.88;;;0.90;99.90;;;;;;5009905;28;20900;-68
2021/11/19 07:58:48;;;;;;;12.95;7.68;;;0.90;99.90;;;;;;5009671;28;20072;-68
2021/11/19 08:01:14;;;;;;;14.32;8.27;;;1.00;99.90;;;;;;5007053;28;20623;-68
2021/11/19 08:03:42;;;;;;;13.73;7.57;;;1.00;99.90;;;;;;5022142;28;20555;-68
2021/11/19 08:06:08;;;;;;;19.20;8.07;;;1.00;99.90;;;;;;5005558;28;20040;-68
2021/11/19 08:08:36;;;;;;;13.98;8.90;;;1.00;99.90;;;;;;5006034;28;20790;-69
2021/11/19 08:11:05;;;;;;;18.30;9.43;;;1.10;99.90;;;;;;5012968;28;20014;-68
2021/11/19 08:13:31;;;;;;;;;;;1.10;99.90;;;;;;5007702;28;20038;-68
2021/11/19 08:15:57;;;;;;;14.15;8.50;;;1.20;99.90;;;;;;5009985;28;19966;-69
2021/11/19 08:18:32;;;;;;;11.50;6.55;;;1.20;99.90;;;;;;5010429;28;20034;-68
2021/11/19 08:21:01;;;;;;;11.75;7.35;;;1.20;99.90;;;;;;5009602;28;21008;-68
2021/11/19 08:23:41;;;;;;;19.05;8.88;;;1.30;99.90;;;;;;5014456;28;20053;-68
2021/11/19 08:26:08;;;;;;;14.05;8.32;;;1.30;99.90;;;;;;5009717;28;20129;-68
2021/11/19 08:28:35;;;;;;;17.58;9.32;;;1.40;99.90;;;;;;5008228;28;20471;-68
2021/11/19 08:31:06;;;;;;;15.02;7.82;;;1.40;99.90;;;;;;5019752;28;20053;-68
2021/11/19 08:33:31;;;;;;;15.35;8.20;;;1.40;99.90;;;;;;5019802;28;20082;-69
2021/11/19 08:35:57;;;;;;;15.57;8.52;;;1.50;99.90;;;;;;5009997;28;20021;-68
2021/11/19 08:38:25;;;;;;;14.02;9.20;;;1.50;99.90;;;;;;5018184;28;20950;-69
2021/11/19 08:40:51;;;;;;;18.33;8.93;;;1.60;99.90;;;;;;5011935;28;20657;-68
2021/11/19 08:43:21;;;;;;;17.30;9.48;;;1.60;99.90;;;;;;5009278;28;20026;-68
2021/11/19 08:45:48;;;;;;;12.25;6.97;;;1.70;99.90;;;;;;5011063;28;20072;-68
2021/11/19 08:48:16;;;;;;;15.35;8.25;;;1.70;99.90;;;;;;5010764;28;20117;-68
2021/11/19 08:50:42;;;;;;;15.63;8.88;;;1.80;99.90;;;;;;5011887;28;20049;-68
2021/11/19 08:53:12;;;;;;;13.98;8.48;;;1.80;99.90;;;;;;5026787;28;20029;-68
2021/11/19 08:55:44;;;;;;;15.77;9.10;;;1.90;99.90;;;;;;5006463;28;20029;-68
2021/11/19 08:58:13;;;;;;;17.85;10.25;;;2.00;99.90;;;;;;5010584;28;20022;-68
2021/11/19 09:00:40;;;;;;;15.13;9.65;;;2.00;99.90;;;;;;5005533;28;20755;-68
2021/11/19 09:03:07;;;;;;;17.40;9.65;;;2.00;99.90;;;;;;5013700;28;20026;-68
2021/11/19 09:05:35;;;;;;;16.33;9.27;;;2.10;99.90;;;;;;5009589;28;20026;-68
2021/11/19 09:08:02;;;;;;;15.32;8.30;;;2.20;99.90;;;;;;5028376;28;20091;-69
2021/11/19 09:10:28;;;;;;;20.83;9.70;;;2.20;99.90;;;;;;5009882;28;20377;-68
2021/11/19 09:12:54;;;;;;;17.92;9.57;;;2.30;99.90;;;;;;5008716;28;20033;-68
2021/11/19 09:15:22;;;;;;;15.85;8.57;;;2.30;99.90;;;;;;5008616;28;20060;-68
2021/11/19 09:18:11;;;;;;;18.90;10.77;;;2.40;99.90;;;;;;5016573;28;20740;-68
2021/11/19 09:21:03;;;;;;;18.83;10.50;;;2.40;99.90;;;;;;5025536;28;20311;-68
2021/11/19 09:23:37;;;;;;;16.05;9.10;;;2.50;99.90;;;;;;5025279;28;20045;-68
2021/11/19 09:26:09;;;;;;;14.77;8.60;;;2.50;99.90;;;;;;5012952;28;20529;-68
2021/11/19 09:28:39;;;;;;;14.50;8.60;;;2.60;99.90;;;;;;5010060;28;20573;-68
2021/11/19 09:31:08;;;;;;;15.95;8.63;;;2.60;99.90;;;;;;5021247;28;20520;-69
2021/11/19 09:33:35;;;;;;;21.45;9.60;;;2.60;99.90;;;;;;5010375;28;20030;-69
2021/11/19 09:36:01;;;;;;;13.00;9.10;;;2.70;99.90;;;;;;5010977;28;20480;-68
2021/11/19 09:38:28;;;;;;;15.75;9.02;;;2.70;99.90;;;;;;5013548;28;20030;-68
2021/11/19 09:41:23;;;;;;;16.27;9.02;;;2.80;99.90;;;;;;5008547;28;20029;-68
2021/11/19 09:44:02;;;;;;;13.52;7.60;;;2.90;99.90;;;;;;4955664;28;20057;-68
2021/11/19 09:46:58;;;;;;;15.73;9.52;;;2.90;99.90;;;;;;5017134;28;20040;-68
2021/11/19 09:49:27;;;;;;;16.88;8.85;;;2.90;99.90;;;;;;5017051;28;20033;-68
2021/11/19 09:52:11;;;;;;;;;;;2.90;99.90;;;;;;5007488;28;22609;-68
2021/11/19 09:55:17;;;;;;;15.40;8.15;;;2.90;99.90;;;;;;5016570;28;19917;-68
2021/11/19 09:58:21;;;;;;;15.48;8.93;;;3.00;99.90;;;;;;5012365;28;20168;-68
2021/11/19 10:01:23;;;;;;;21.30;9.35;;;3.10;99.90;;;;;;5022761;28;20046;-68
2021/11/19 10:04:10;;;;;;;18.35;10.57;;;3.10;99.90;;;;;;4995066;28;20465;-68
2021/11/19 10:06:53;;;;;;;15.48;8.35;;;3.10;99.90;;;;;;5012804;28;20083;-67
2021/11/19 10:09:35;;;;;;;19.55;11.18;;;3.20;99.90;;;;;;5007416;28;20037;-68
2021/11/19 10:12:12;;;;;;;22.55;11.20;;;3.30;99.90;;;;;;5016121;28;20465;-67
2021/11/19 10:14:53;;;;;;;21.48;10.80;;;3.30;99.90;;;;;;5020781;28;20079;-68
2021/11/19 10:17:49;;;;;;;17.88;11.07;;;3.40;99.90;;;;;;5018093;28;20025;-70
2021/11/19 10:20:26;;;;;;;22.38;10.98;;;3.40;99.90;;;;;;5013222;28;20087;-67
2021/11/19 10:23:09;;;;;;;19.48;9.57;;;3.50;99.90;;;;;;5011489;28;20343;-67
2021/11/19 10:25:48;;;;;;;23.50;11.68;;;3.50;99.90;;;;;;5008218;28;20045;-67
2021/11/19 10:28:23;;;;;;;22.88;9.80;;;3.70;99.90;;;;;;5011409;28;20026;-67
2021/11/19 10:30:52;;;;;;;21.42;11.23;;;3.80;99.90;;;;;;5022601;28;20687;-67
2021/11/19 10:33:27;;;;;;;24.90;12.07;;;3.80;99.90;;;;;;5017757;28;20033;-67
2021/11/19 10:36:15;;;;;;;18.15;10.07;;;3.80;99.90;;;;;;5028450;28;20059;-67
2021/11/19 10:38:56;;;;;;;22.92;11.35;;;3.90;99.90;;;;;;5011955;28;20112;-67
2021/11/19 10:41:49;;;;;;;24.05;12.18;;;3.90;99.90;;;;;;5009879;28;20017;-67
2021/11/19 10:44:47;;;;;;;25.55;11.55;;;4.00;99.90;;;;;;5015051;28;20083;-67
2021/11/19 10:47:33;;;;;;;22.33;12.35;;;4.00;99.90;;;;;;5011856;28;20116;-67
2021/11/19 10:50:31;;;;;;;20.42;11.13;;;4.10;99.90;;;;;;5013510;28;20080;-67
2021/11/19 10:53:35;;;;;;;18.55;12.02;;;4.00;99.90;;;;;;4978863;28;20116;-67
2021/11/19 10:56:22;;;;;;;22.27;10.52;;;4.00;99.90;;;;;;5027682;28;20130;-67
2021/11/19 10:59:21;;;;;;;17.30;8.93;;;4.10;99.90;;;;;;5026616;28;20032;-66
2021/11/19 11:01:59;;;;;;;21.60;11.07;;;4.20;99.90;;;;;;5020317;28;20720;-67
2021/11/19 11:04:38;;;;;;;16.42;9.77;;;4.20;99.90;;;;;;5013133;28;20025;-67
2021/11/19 11:07:12;;;;;;;21.80;10.88;;;4.30;99.90;;;;;;5024797;28;20018;-67
2021/11/19 11:09:54;;;;;;;20.27;11.27;;;4.40;99.90;;;;;;5021982;28;20022;-67
2021/11/19 11:12:31;;;;;;;22.45;11.65;;;4.40;99.90;;;;;;5023346;28;20035;-67
2021/11/19 11:15:23;;;;;;;22.02;11.20;;;4.50;99.90;;;;;;5022333;28;20018;-67
2021/11/19 11:18:04;;;;;;;20.42;10.27;;;4.60;99.90;;;;;;5011976;28;20072;-67
2021/11/19 11:20:52;;;;;;;21.35;11.27;;;4.60;99.90;;;;;;5022297;28;20037;-67
2021/11/19 11:23:39;;;;;;;24.13;12.68;;;4.70;99.90;;;;;;5019438;28;20038;-67
2021/11/19 11:26:15;;;;;;;20.02;11.18;;;4.70;99.90;;;;;;5025558;28;20131;-67
2021/11/19 11:29:16;;;;;;;20.67;11.32;;;4.80;99.90;;;;;;5014629;28;20026;-67
2021/11/19 11:31:48;;;;;;;22.65;11.32;;;4.90;99.90;;;;;;5020050;28;20038;-67
2021/11/19 11:34:19;;;;;;;21.42;10.85;;;4.90;99.90;;;;;;5020808;28;20030;-67
2021/11/19 11:37:06;;;;;;;27.08;11.05;;;5.00;99.90;;;;;;5028268;28;20500;-68
2021/11/19 11:39:40;;;;;;;21.02;10.88;;;5.00;99.90;;;;;;5014968;28;20026;-68
2021/11/19 11:42:28;;;;;;;22.58;10.93;;;5.00;99.90;;;;;;5024835;28;20072;-67
2021/11/19 11:44:56;;;;;;;24.07;12.40;;;5.10;99.90;;;;;;5015824;28;20033;-67
2021/11/19 11:47:35;;;;;;;18.98;10.82;;;5.10;99.90;;;;;;5033060;28;20410;-67
2021/11/19 11:50:28;;;;;;;18.05;10.77;;;5.10;99.90;;;;;;5014899;28;20292;-68
2021/11/19 11:53:10;;;;;;;19.80;10.52;;;5.20;99.90;;;;;;5013850;28;20733;-68
2021/11/19 11:56:08;;;;;;;18.48;10.00;;;5.30;99.90;;;;;;5013522;28;20021;-67
2021/11/19 11:58:59;;;;;;;23.77;11.40;;;5.30;99.90;;;;;;5032257;28;20037;-68
2021/11/19 12:01:50;;;;;;;20.80;11.07;;;5.40;99.90;;;;;;5014044;28;20091;-67
2021/11/19 12:04:38;;;;;;;16.83;9.20;;;5.40;99.90;;;;;;5014131;28;20040;-67
2021/11/19 12:07:35;;;;;;;19.40;9.57;;;5.50;99.90;;;;;;5027415;28;20523;-68
2021/11/19 12:10:11;;;;;;;18.60;10.20;;;5.50;99.90;;;;;;5015530;28;20033;-67
2021/11/19 12:12:43;;;;;;;21.13;10.18;;;5.60;99.90;;;;;;5019444;28;20542;-67
2021/11/19 12:15:28;;;;;;;18.00;9.10;;;5.70;99.90;;;;;;5026894;28;20017;-67
2021/11/19 12:18:25;;;;;;;20.15;9.95;;;5.80;99.90;;;;;;5021449;28;20038;-68
2021/11/19 12:21:13;;;;;;;20.20;10.00;;;5.90;99.90;;;;;;5027351;28;20034;-68
2021/11/19 12:23:59;;;;;;;16.85;9.00;;;6.00;99.90;;;;;;5013708;28;20406;-68
2021/11/19 12:26:44;;;;;;;23.10;10.10;;;6.00;99.90;;;;;;5015846;28;20130;-68
2021/11/19 12:29:30;;;;;;;17.10;10.35;;;6.10;99.90;;;;;;5026466;28;20064;-68
2021/11/19 12:32:19;;;;;;;21.27;10.32;;;6.20;99.90;;;;;;5011675;28;20034;-68
2021/11/19 12:34:58;;;;;;;18.75;10.32;;;6.30;99.90;;;;;;5010737;28;20035;-68
2021/11/19 12:37:41;;;;;;;21.80;10.52;;;6.30;99.90;;;;;;5017017;28;20036;-69
2021/11/19 12:40:34;;;;;;;19.98;10.18;;;6.30;99.90;;;;;;5031566;28;20668;-68
2021/11/19 12:43:27;;;;;;;20.70;10.27;;;6.40;99.90;;;;;;5007628;28;20645;-69
2021/11/19 12:46:27;;;;;;;26.30;11.73;;;6.50;99.90;;;;;;5009790;28;20042;-69
2021/11/19 12:49:17;;;;;;;20.95;11.88;;;6.50;99.90;;;;;;4995584;28;20052;-68
2021/11/19 12:52:02;;;;;;;18.30;10.18;;;6.60;99.90;;;;;;5026317;28;20036;-68
2021/11/19 12:54:43;;;;;;;21.70;11.57;;;6.70;99.90;;;;;;5010395;28;20034;-68
2021/11/19 12:57:37;;;;;;;20.83;10.45;;;6.80;99.90;;;;;;5011289;28;20033;-68
2021/11/19 13:00:04;;;;;;;20.63;11.73;;;6.80;99.90;;;;;;5015538;28;20025;-68
2021/11/19 13:02:42;;;;;;;18.98;12.20;;;6.80;99.90;;;;;;5009382;28;20080;-69
2021/11/19 13:05:11;;;;;;;20.33;10.60;;;6.90;99.90;;;;;;5010302;28;20666;-70
2021/11/19 13:07:46;;;;;;;22.23;10.77;;;6.80;99.90;;;;;;5011550;28;20071;-68
2021/11/19 13:10:15;;;;;;;21.98;11.65;;;6.90;99.90;;;;;;5004231;28;20161;-68
2021/11/19 13:13:02;;;;;;;20.65;10.43;;;7.00;99.90;;;;;;4999725;28;20893;-69
2021/11/19 13:15:42;;;;;;;19.88;10.30;;;7.00;99.90;;;;;;5004153;28;20041;-68
2021/11/19 13:18:33;;;;;;;23.10;10.20;;;7.00;99.90;;;;;;5013702;28;20033;-69